• Join FlightAware (Why Join?)
  • Login
  • US Flag 
09:13AM EDT


 

Airport Tracker/Info


-or-


 

Live Flight TrackerFlight Track Log ✈ N125TV ✈ 28-Sep-2013 ✈ KTCL - KMOB

Flight Track Log - Related Links

Times and Time Zones

All times are in EDT time to prevent confusion due to time zone crossing. See the N125TV flight status page for this flight to view local times or setup timezone preferences in your user account.

Time Position Orientation Groundspeed Altitude Reporting Facility
EDT Latitude Longitude Course Direction KTS MPH feet Rate Location/Type
11:04PM 33.2322 -87.5753 192° South 229 264 1,300  Level Atlanta Center
11:04PM 33.2281 -87.5675 123° Southeast 126 145 1,600 900 Climbing Atlanta Center
11:05PM 33.1972 -87.5564 163° South 137 158 2,400 660 Climbing Atlanta Center
11:06PM 33.1550 -87.5722 197° South 144 166 3,100 660 Climbing Atlanta Center
11:07PM 33.1172 -87.5781 187° South 150 173 3,800 660 Climbing Atlanta Center
11:08PM 33.0794 -87.5889 194° South 159 183 4,400 600 Climbing Atlanta Center
11:09PM 32.9676 -87.6762 193° South  Level Estimated
11:09PM 33.0394 -87.5947 187° South 159 183 5,100  Level Atlanta Center
11:10PM 32.9254 -87.6867 192° South  Level FlightAware Approximate
11:10PM 32.9972 -87.6103 197° South 159 183 5,800  Level Atlanta Center
11:11PM 32.9575 -87.6211 193° South 154 177 6,500 600 Climbing Atlanta Center
11:12PM 32.9175 -87.6317 192° South 154 177 7,100 540 Climbing Atlanta Center
11:13PM 32.8753 -87.6450 195° South 154 177 7,600 420 Climbing Atlanta Center
11:14PM 32.8311 -87.6556 191° South 154 177 8,000 180 Climbing Atlanta Center
11:15PM 32.7806 -87.6706 194° South 172 198 8,000  Level Atlanta Center
11:16PM 32.7344 -87.6836 193° South 172 198 8,000  Level Atlanta Center
11:17PM 32.6858 -87.6964 192° South 178 205 8,000  Level Atlanta Center
11:18PM 32.6353 -87.7117 194° South 183 211 8,000  Level Atlanta Center
11:19PM 32.5869 -87.7242 192° South 183 211 8,000  Level Atlanta Center
11:20PM 32.5344 -87.7394 194° South 183 211 8,000  Level Atlanta Center
11:21PM 32.4861 -87.7522 193° South 183 211 8,000  Level Atlanta Center
11:22PM 32.4331 -87.7769 201° Southwest 189 217 8,000  Level Atlanta Center
11:23PM 32.3825 -87.7919 194° South 189 217 8,000  Level Atlanta Center
11:24PM 32.3303 -87.7947 183° South 184 212 8,000  Level Atlanta Center
11:25PM 32.2797 -87.8050 190° South 184 212 8,000  Level Atlanta Center
11:26PM 32.2314 -87.8225 197° South 184 212 8,000  Level Atlanta Center
11:27PM 32.1808 -87.8375 194° South 184 212 8,000  Level Atlanta Center
11:28PM 32.1325 -87.8503 193° South 184 212 8,000  Level Atlanta Center
11:29PM 32.0797 -87.8625 191° South 184 212 8,000  Level Atlanta Center
11:30PM 32.0314 -87.8803 197° South 184 212 8,000 -60 Level Atlanta Center
11:33PM 31.9303 -87.9047 192° South 188 216 7,900 -60 Descending Houston Center
11:34PM 31.8767 -87.9189 193° South 192 221 7,900  Level Houston Center
11:35PM 31.8258 -87.9325 193° South 190 219 7,900  Level Houston Center
11:36PM 31.7731 -87.9483 194° South 192 221 7,900  Level Houston Center
11:37PM 31.7217 -87.9619 193° South 192 221 7,900  Level Houston Center
11:38PM 31.6692 -87.9758 193° South 192 221 7,900  Level Houston Center
11:39PM 31.6175 -87.9886 192° South 191 220 7,900  Level Houston Center
11:40PM 31.5561 -88.0058 193° South 190 219 7,900  Level Houston Center
11:41PM 31.5047 -88.0208 194° South 190 219 7,900  Level Houston Center
11:42PM 31.4528 -88.0344 193° South 190 219 7,900  Level Houston Center
11:43PM 31.4014 -88.0494 194° South 191 220 7,900 -480 Level Houston Center
11:44PM 31.3453 -88.0642 193° South 201 231 7,000 -720 Descending Houston Center
11:45PM 31.2881 -88.0800 193° South 209 241 6,500 -660 Descending Houston Center
11:46PM 31.2325 -88.0944 193° South 206 237 5,700 -780 Descending Houston Center
11:47PM 31.1783 -88.1086 193° South 199 229 5,000 -900 Descending Houston Center
11:48PM 31.1239 -88.1244 194° South 199 229 3,900 -1,020 Descending Houston Center
11:49PM 31.0711 -88.1381 192° South 196 226 3,000 -540 Descending Houston Center
11:50PM 31.0214 -88.1519 193° South 187 215 2,900 -60 Descending Houston Center
11:51PM 30.9733 -88.1653 193° South 175 201 2,900  Level Houston Center
11:52PM 30.9250 -88.1781 193° South 175 201 2,900 -300 Level Houston Center
11:53PM 30.8786 -88.1969 199° South 176 203 2,400 -660 Descending Houston Center
11:54PM 30.8311 -88.2222 205° Southwest 182 209 1,600 -480 Descending Houston Center
11:55PM 30.7903 -88.2489 209° Southwest 176 203 1,500 -120 Descending Houston Center
11:56PM 30.7531 -88.2725 209° Southwest 163 188 1,400 -420 Descending Houston Center
11:57PM 30.7214 -88.2703 177° South 139 160 700 -600 Descending Houston Center
11:58PM 30.7039 -88.2550 143° Southeast 117 135 300 -420 Descending Houston Center
12:00AM 30.6914 -88.2428 192° South  Level Estimated